sensor_id;sensor_type;location;lat;lon;timestamp;temperature;humidity
15926;DHT22;8062;53.882;10.642;2023-03-23T00:00:57;10.70;99.90
15926;DHT22;8062;53.882;10.642;2023-03-23T00:02:17;10.60;99.90
15926;DHT22;8062;53.882;10.642;2023-03-23T00:03:37;10.60;99.90
15926;DHT22;8062;53.882;10.642;2023-03-23T00:04:57;10.60;99.90
15926;DHT22;8062;53.882;10.642;2023-03-23T00:06:17;10.50;99.90
15926;DHT22;8062;53.882;10.642;2023-03-23T00:07:37;10.50;99.90
15926;DHT22;8062;53.882;10.642;2023-03-23T00:08:57;10.50;99.90
15926;DHT22;8062;53.882;10.642;2023-03-23T00:10:18;10.50;99.90
15926;DHT22;8062;53.882;10.642;2023-03-23T00:11:37;10.40;99.90
15926;DHT22;8062;53.882;10.642;2023-03-23T00:12:58;10.50;99.90
15926;DHT22;8062;53.882;10.642;2023-03-23T00:14:21;10.40;99.90
15926;DHT22;8062;53.882;10.642;2023-03-23T00:15:41;10.40;99.90
15926;DHT22;8062;53.882;10.642;2023-03-23T00:17:01;10.40;99.90
15926;DHT22;8062;53.882;10.642;2023-03-23T00:18:22;10.30;99.90
15926;DHT22;8062;53.882;10.642;2023-03-23T00:19:42;10.30;99.90
15926;DHT22;8062;53.882;10.642;2023-03-23T00:21:07;10.30;99.90
15926;DHT22;8062;53.882;10.642;2023-03-23T00:22:28;10.30;99.90
15926;DHT22;8062;53.882;10.642;2023-03-23T00:23:47;10.30;99.90
15926;DHT22;8062;53.882;10.642;2023-03-23T00:25:08;10.30;99.90
15926;DHT22;8062;53.882;10.642;2023-03-23T00:26:27;10.20;99.90
15926;DHT22;8062;53.882;10.642;2023-03-23T00:27:48;10.20;99.90
15926;DHT22;8062;53.882;10.642;2023-03-23T00:29:12;10.20;99.90
15926;DHT22;8062;53.882;10.642;2023-03-23T00:30:34;10.20;99.90
15926;DHT22;8062;53.882;10.642;2023-03-23T00:31:53;10.20;99.90
15926;DHT22;8062;53.882;10.642;2023-03-23T00:33:13;10.10;99.90
15926;DHT22;8062;53.882;10.642;2023-03-23T00:34:33;10.10;99.90
15926;DHT22;8062;53.882;10.642;2023-03-23T00:35:54;10.10;99.90
15926;DHT22;8062;53.882;10.642;2023-03-23T00:37:14;10.00;99.90
15926;DHT22;8062;53.882;10.642;2023-03-23T00:38:36;10.00;99.90
15926;DHT22;8062;53.882;10.642;2023-03-23T00:39:56;10.00;99.90
15926;DHT22;8062;53.882;10.642;2023-03-23T00:41:16;10.00;99.90
15926;DHT22;8062;53.882;10.642;2023-03-23T00:42:36;10.00;99.90
15926;DHT22;8062;53.882;10.642;2023-03-23T00:43:58;10.00;99.90
15926;DHT22;8062;53.882;10.642;2023-03-23T00:45:19;10.00;99.90
15926;DHT22;8062;53.882;10.642;2023-03-23T00:46:39;10.00;99.90
15926;DHT22;8062;53.882;10.642;2023-03-23T00:48:04;10.00;99.90
15926;DHT22;8062;53.882;10.642;2023-03-23T00:49:25;9.90;99.90
15926;DHT22;8062;53.882;10.642;2023-03-23T00:50:45;9.90;99.90
15926;DHT22;8062;53.882;10.642;2023-03-23T00:52:06;9.90;99.90
15926;DHT22;8062;53.882;10.642;2023-03-23T00:53:25;9.90;99.90
15926;DHT22;8062;53.882;10.642;2023-03-23T00:54:45;9.90;99.90
15926;DHT22;8062;53.882;10.642;2023-03-23T00:56:05;9.90;99.90
15926;DHT22;8062;53.882;10.642;2023-03-23T00:57:25;9.90;99.90
15926;DHT22;8062;53.882;10.642;2023-03-23T00:58:44;9.90;99.90
15926;DHT22;8062;53.882;10.642;2023-03-23T01:00:05;9.90;99.90
15926;DHT22;8062;53.882;10.642;2023-03-23T01:01:31;9.90;99.90
15926;DHT22;8062;53.882;10.642;2023-03-23T01:02:52;9.90;99.90
15926;DHT22;8062;53.882;10.642;2023-03-23T01:04:12;9.90;99.90
15926;DHT22;8062;53.882;10.642;2023-03-23T01:05:38;9.90;99.90
15926;DHT22;8062;53.882;10.642;2023-03-23T01:06:58;9.90;99.90
15926;DHT22;8062;53.882;10.642;2023-03-23T01:08:19;9.90;99.90
15926;DHT22;8062;53.882;10.642;2023-03-23T01:09:40;9.90;99.90
15926;DHT22;8062;53.882;10.642;2023-03-23T01:11:06;9.90;99.90
15926;DHT22;8062;53.882;10.642;2023-03-23T01:12:25;9.90;99.90
15926;DHT22;8062;53.882;10.642;2023-03-23T01:13:45;9.90;99.90
15926;DHT22;8062;53.882;10.642;2023-03-23T01:15:06;9.80;99.90
15926;DHT22;8062;53.882;10.642;2023-03-23T01:16:25;9.80;99.90
15926;DHT22;8062;53.882;10.642;2023-03-23T01:17:45;9.80;99.90
15926;DHT22;8062;53.882;10.642;2023-03-23T01:19:05;9.80;99.90
15926;DHT22;8062;53.882;10.642;2023-03-23T01:20:25;9.80;99.90
15926;DHT22;8062;53.882;10.642;2023-03-23T01:21:46;9.80;99.90
15926;DHT22;8062;53.882;10.642;2023-03-23T01:23:06;9.80;99.90
15926;DHT22;8062;53.882;10.642;2023-03-23T01:24:26;9.80;99.90
15926;DHT22;8062;53.882;10.642;2023-03-23T01:25:45;9.80;99.90
15926;DHT22;8062;53.882;10.642;2023-03-23T01:27:05;9.90;99.90
15926;DHT22;8062;53.882;10.642;2023-03-23T01:28:25;9.80;99.90
15926;DHT22;8062;53.882;10.642;2023-03-23T01:29:45;9.90;99.90
15926;DHT22;8062;53.882;10.642;2023-03-23T01:31:10;9.90;99.90
15926;DHT22;8062;53.882;10.642;2023-03-23T01:32:31;9.90;99.90
15926;DHT22;8062;53.882;10.642;2023-03-23T01:33:52;9.90;99.90
15926;DHT22;8062;53.882;10.642;2023-03-23T01:35:12;9.90;99.90
15926;DHT22;8062;53.882;10.642;2023-03-23T01:36:32;9.90;99.90
15926;DHT22;8062;53.882;10.642;2023-03-23T01:37:54;9.90;99.90
15926;DHT22;8062;53.882;10.642;2023-03-23T01:39:13;9.90;99.90
15926;DHT22;8062;53.882;10.642;2023-03-23T01:40:33;9.90;99.90
15926;DHT22;8062;53.882;10.642;2023-03-23T01:41:53;9.90;99.90
15926;DHT22;8062;53.882;10.642;2023-03-23T01:43:15;9.90;99.90
15926;DHT22;8062;53.882;10.642;2023-03-23T01:46:01;9.90;99.90
15926;DHT22;8062;53.882;10.642;2023-03-23T01:47:21;9.90;99.90
15926;DHT22;8062;53.882;10.642;2023-03-23T01:48:43;9.90;99.90
15926;DHT22;8062;53.882;10.642;2023-03-23T01:50:04;9.90;99.90
15926;DHT22;8062;53.882;10.642;2023-03-23T01:51:25;9.90;99.90
15926;DHT22;8062;53.882;10.642;2023-03-23T01:52:45;9.90;99.90
15926;DHT22;8062;53.882;10.642;2023-03-23T01:54:07;9.90;99.90
15926;DHT22;8062;53.882;10.642;2023-03-23T01:55:28;9.90;99.90
15926;DHT22;8062;53.882;10.642;2023-03-23T01:56:54;9.90;99.90
15926;DHT22;8062;53.882;10.642;2023-03-23T01:58:14;9.90;99.90
15926;DHT22;8062;53.882;10.642;2023-03-23T01:59:35;9.90;99.90
15926;DHT22;8062;53.882;10.642;2023-03-23T02:01:13;10.00;99.90
15926;DHT22;8062;53.882;10.642;2023-03-23T02:02:33;9.90;99.90
15926;DHT22;8062;53.882;10.642;2023-03-23T02:03:56;9.90;99.90
15926;DHT22;8062;53.882;10.642;2023-03-23T02:05:32;9.90;99.90
15926;DHT22;8062;53.882;10.642;2023-03-23T02:06:58;9.90;99.90
15926;DHT22;8062;53.882;10.642;2023-03-23T02:08:20;9.90;99.90
15926;DHT22;8062;53.882;10.642;2023-03-23T02:09:40;9.90;99.90
15926;DHT22;8062;53.882;10.642;2023-03-23T02:11:00;9.90;99.90
15926;DHT22;8062;53.882;10.642;2023-03-23T02:12:21;9.90;99.90
15926;DHT22;8062;53.882;10.642;2023-03-23T02:13:44;9.90;99.90
15926;DHT22;8062;53.882;10.642;2023-03-23T02:15:04;9.90;99.90
15926;DHT22;8062;53.882;10.642;2023-03-23T02:16:51;9.90;99.90
15926;DHT22;8062;53.882;10.642;2023-03-23T02:18:35;9.90;99.90
15926;DHT22;8062;53.882;10.642;2023-03-23T02:20:13;9.90;99.90
15926;DHT22;8062;53.882;10.642;2023-03-23T02:23:31;9.80;99.90
15926;DHT22;8062;53.882;10.642;2023-03-23T02:25:23;9.90;99.90
15926;DHT22;8062;53.882;10.642;2023-03-23T02:27:08;9.90;99.90
15926;DHT22;8062;53.882;10.642;2023-03-23T02:29:01;9.80;99.90
15926;DHT22;8062;53.882;10.642;2023-03-23T02:34:02;9.90;99.90
15926;DHT22;8062;53.882;10.642;2023-03-23T02:35:34;9.90;99.90
15926;DHT22;8062;53.882;10.642;2023-03-23T02:36:56;9.90;99.90
15926;DHT22;8062;53.882;10.642;2023-03-23T02:38:22;9.90;99.90
15926;DHT22;8062;53.882;10.642;2023-03-23T02:39:50;9.90;99.90
15926;DHT22;8062;53.882;10.642;2023-03-23T02:41:11;9.90;99.90
15926;DHT22;8062;53.882;10.642;2023-03-23T02:42:33;9.90;99.90
15926;DHT22;8062;53.882;10.642;2023-03-23T02:43:54;9.90;99.90
15926;DHT22;8062;53.882;10.642;2023-03-23T02:45:16;9.90;99.90
15926;DHT22;8062;53.882;10.642;2023-03-23T02:46:39;10.00;99.90
15926;DHT22;8062;53.882;10.642;2023-03-23T02:48:00;10.00;99.90
15926;DHT22;8062;53.882;10.642;2023-03-23T02:49:22;10.00;99.90
15926;DHT22;8062;53.882;10.642;2023-03-23T02:50:45;10.00;99.90
15926;DHT22;8062;53.882;10.642;2023-03-23T02:52:16;10.00;99.90
15926;DHT22;8062;53.882;10.642;2023-03-23T02:53:40;10.00;99.90
15926;DHT22;8062;53.882;10.642;2023-03-23T02:55:01;10.00;99.90
15926;DHT22;8062;53.882;10.642;2023-03-23T02:56:23;10.00;99.90
15926;DHT22;8062;53.882;10.642;2023-03-23T02:57:45;10.00;99.90
15926;DHT22;8062;53.882;10.642;2023-03-23T02:59:07;10.00;99.90
15926;DHT22;8062;53.882;10.642;2023-03-23T03:00:27;10.00;99.90
15926;DHT22;8062;53.882;10.642;2023-03-23T03:01:54;10.00;99.90
15926;DHT22;8062;53.882;10.642;2023-03-23T03:03:17;10.00;99.90
15926;DHT22;8062;53.882;10.642;2023-03-23T03:04:40;10.00;99.90
15926;DHT22;8062;53.882;10.642;2023-03-23T03:06:16;10.00;99.90
15926;DHT22;8062;53.882;10.642;2023-03-23T03:11:15;10.00;99.90
15926;DHT22;8062;53.882;10.642;2023-03-23T03:13:14;10.00;99.90
15926;DHT22;8062;53.882;10.642;2023-03-23T03:14:49;10.00;99.90
15926;DHT22;8062;53.882;10.642;2023-03-23T03:16:24;10.00;99.90
15926;DHT22;8062;53.882;10.642;2023-03-23T03:19:26;10.00;99.90
15926;DHT22;8062;53.882;10.642;2023-03-23T03:20:50;10.00;99.90
15926;DHT22;8062;53.882;10.642;2023-03-23T03:22:13;10.00;99.90
15926;DHT22;8062;53.882;10.642;2023-03-23T03:23:34;10.00;99.90
15926;DHT22;8062;53.882;10.642;2023-03-23T03:24:58;10.00;99.90
15926;DHT22;8062;53.882;10.642;2023-03-23T03:26:19;10.00;99.90
15926;DHT22;8062;53.882;10.642;2023-03-23T03:27:47;10.00;99.90
15926;DHT22;8062;53.882;10.642;2023-03-23T03:29:22;10.00;99.90
15926;DHT22;8062;53.882;10.642;2023-03-23T03:30:49;10.00;99.90
15926;DHT22;8062;53.882;10.642;2023-03-23T03:32:18;10.00;99.90
15926;DHT22;8062;53.882;10.642;2023-03-23T03:33:38;10.00;99.90
15926;DHT22;8062;53.882;10.642;2023-03-23T03:35:01;10.10;99.90
15926;DHT22;8062;53.882;10.642;2023-03-23T03:36:26;10.10;99.90
15926;DHT22;8062;53.882;10.642;2023-03-23T03:37:46;10.00;99.90
15926;DHT22;8062;53.882;10.642;2023-03-23T03:39:08;10.10;99.90
15926;DHT22;8062;53.882;10.642;2023-03-23T03:40:29;10.10;99.90
15926;DHT22;8062;53.882;10.642;2023-03-23T03:41:49;10.10;99.90
15926;DHT22;8062;53.882;10.642;2023-03-23T03:43:09;10.10;99.90
15926;DHT22;8062;53.882;10.642;2023-03-23T03:44:29;10.10;99.90
15926;DHT22;8062;53.882;10.642;2023-03-23T03:45:49;10.10;99.90
15926;DHT22;8062;53.882;10.642;2023-03-23T03:47:08;10.10;99.90
15926;DHT22;8062;53.882;10.642;2023-03-23T03:48:28;10.10;99.90
15926;DHT22;8062;53.882;10.642;2023-03-23T03:49:48;10.10;99.90
15926;DHT22;8062;53.882;10.642;2023-03-23T03:51:07;10.10;99.90
15926;DHT22;8062;53.882;10.642;2023-03-23T03:52:30;10.10;99.90
15926;DHT22;8062;53.882;10.642;2023-03-23T03:53:51;10.10;99.90
15926;DHT22;8062;53.882;10.642;2023-03-23T03:55:11;10.10;99.90
15926;DHT22;8062;53.882;10.642;2023-03-23T03:56:34;10.10;99.90
15926;DHT22;8062;53.882;10.642;2023-03-23T03:58:16;10.10;99.90
15926;DHT22;8062;53.882;10.642;2023-03-23T03:59:53;10.10;99.90
15926;DHT22;8062;53.882;10.642;2023-03-23T04:01:34;10.10;99.90
15926;DHT22;8062;53.882;10.642;2023-03-23T04:02:54;10.10;99.90
15926;DHT22;8062;53.882;10.642;2023-03-23T04:04:50;10.10;99.90
15926;DHT22;8062;53.882;10.642;2023-03-23T04:06:12;10.10;99.90
15926;DHT22;8062;53.882;10.642;2023-03-23T04:07:34;10.10;99.90
15926;DHT22;8062;53.882;10.642;2023-03-23T04:08:58;10.10;99.90
15926;DHT22;8062;53.882;10.642;2023-03-23T04:10:20;10.10;99.90
15926;DHT22;8062;53.882;10.642;2023-03-23T04:11:47;10.10;99.90
15926;DHT22;8062;53.882;10.642;2023-03-23T04:13:27;10.10;99.90
15926;DHT22;8062;53.882;10.642;2023-03-23T04:15:06;10.10;99.90
15926;DHT22;8062;53.882;10.642;2023-03-23T04:16:28;10.10;99.90
15926;DHT22;8062;53.882;10.642;2023-03-23T04:17:49;10.10;99.90
15926;DHT22;8062;53.882;10.642;2023-03-23T04:19:09;10.10;99.90
15926;DHT22;8062;53.882;10.642;2023-03-23T04:20:29;10.10;99.90
15926;DHT22;8062;53.882;10.642;2023-03-23T04:21:50;10.10;99.90
15926;DHT22;8062;53.882;10.642;2023-03-23T04:23:11;10.10;99.90
15926;DHT22;8062;53.882;10.642;2023-03-23T04:24:31;10.10;99.90
15926;DHT22;8062;53.882;10.642;2023-03-23T04:25:53;10.10;99.90
15926;DHT22;8062;53.882;10.642;2023-03-23T04:27:17;10.10;99.90
15926;DHT22;8062;53.882;10.642;2023-03-23T04:28:37;10.10;99.90
15926;DHT22;8062;53.882;10.642;2023-03-23T04:30:17;10.10;99.90
15926;DHT22;8062;53.882;10.642;2023-03-23T04:31:43;10.10;99.90
15926;DHT22;8062;53.882;10.642;2023-03-23T04:33:29;10.10;99.90
15926;DHT22;8062;53.882;10.642;2023-03-23T04:34:49;10.10;99.90
15926;DHT22;8062;53.882;10.642;2023-03-23T04:36:10;10.10;99.90
15926;DHT22;8062;53.882;10.642;2023-03-23T04:37:32;10.10;99.90
15926;DHT22;8062;53.882;10.642;2023-03-23T04:38:52;10.10;99.90
15926;DHT22;8062;53.882;10.642;2023-03-23T04:40:16;10.10;99.90
15926;DHT22;8062;53.882;10.642;2023-03-23T04:41:41;10.20;99.90
15926;DHT22;8062;53.882;10.642;2023-03-23T04:43:09;10.20;99.90
15926;DHT22;8062;53.882;10.642;2023-03-23T04:44:44;10.20;99.90
15926;DHT22;8062;53.882;10.642;2023-03-23T04:46:12;10.20;99.90
15926;DHT22;8062;53.882;10.642;2023-03-23T04:47:37;10.10;99.90
15926;DHT22;8062;53.882;10.642;2023-03-23T04:49:05;10.20;99.90
15926;DHT22;8062;53.882;10.642;2023-03-23T04:50:30;10.10;99.90
15926;DHT22;8062;53.882;10.642;2023-03-23T04:51:56;10.10;99.90
15926;DHT22;8062;53.882;10.642;2023-03-23T04:53:34;10.10;99.90
15926;DHT22;8062;53.882;10.642;2023-03-23T04:54:55;10.10;99.90
15926;DHT22;8062;53.882;10.642;2023-03-23T04:56:19;10.10;99.90
15926;DHT22;8062;53.882;10.642;2023-03-23T04:57:39;10.10;99.90
15926;DHT22;8062;53.882;10.642;2023-03-23T04:59:18;10.10;99.90
15926;DHT22;8062;53.882;10.642;2023-03-23T05:00:45;10.10;99.90
15926;DHT22;8062;53.882;10.642;2023-03-23T05:02:10;10.10;99.90
15926;DHT22;8062;53.882;10.642;2023-03-23T05:03:30;10.10;99.90
15926;DHT22;8062;53.882;10.642;2023-03-23T05:04:51;10.10;99.90
15926;DHT22;8062;53.882;10.642;2023-03-23T05:06:14;10.10;99.90
15926;DHT22;8062;53.882;10.642;2023-03-23T05:07:35;10.10;99.90
15926;DHT22;8062;53.882;10.642;2023-03-23T05:08:55;10.10;99.90
15926;DHT22;8062;53.882;10.642;2023-03-23T05:10:16;10.10;99.90
15926;DHT22;8062;53.882;10.642;2023-03-23T05:11:37;10.10;99.90
15926;DHT22;8062;53.882;10.642;2023-03-23T05:12:56;10.10;99.90
15926;DHT22;8062;53.882;10.642;2023-03-23T05:14:16;10.10;99.90
15926;DHT22;8062;53.882;10.642;2023-03-23T05:15:40;10.10;99.90
15926;DHT22;8062;53.882;10.642;2023-03-23T05:17:01;10.10;99.90
15926;DHT22;8062;53.882;10.642;2023-03-23T05:18:21;10.10;99.90
15926;DHT22;8062;53.882;10.642;2023-03-23T05:19:41;10.10;99.90
15926;DHT22;8062;53.882;10.642;2023-03-23T05:21:18;10.10;99.90
15926;DHT22;8062;53.882;10.642;2023-03-23T05:22:42;10.10;99.90
15926;DHT22;8062;53.882;10.642;2023-03-23T05:24:05;10.20;99.90
15926;DHT22;8062;53.882;10.642;2023-03-23T05:25:25;10.20;99.90
15926;DHT22;8062;53.882;10.642;2023-03-23T05:26:52;10.20;99.90
15926;DHT22;8062;53.882;10.642;2023-03-23T05:28:16;10.10;99.90
15926;DHT22;8062;53.882;10.642;2023-03-23T05:29:57;10.10;99.90
15926;DHT22;8062;53.882;10.642;2023-03-23T05:31:18;10.10;99.90
15926;DHT22;8062;53.882;10.642;2023-03-23T05:32:38;10.10;99.90
15926;DHT22;8062;53.882;10.642;2023-03-23T05:34:14;10.10;99.90
15926;DHT22;8062;53.882;10.642;2023-03-23T05:35:41;10.10;99.90
15926;DHT22;8062;53.882;10.642;2023-03-23T05:37:02;10.10;99.90
15926;DHT22;8062;53.882;10.642;2023-03-23T05:38:28;10.10;99.90
15926;DHT22;8062;53.882;10.642;2023-03-23T05:39:48;10.10;99.90
15926;DHT22;8062;53.882;10.642;2023-03-23T05:41:20;10.10;99.90
15926;DHT22;8062;53.882;10.642;2023-03-23T05:42:41;10.10;99.90
15926;DHT22;8062;53.882;10.642;2023-03-23T05:44:08;10.10;99.90
15926;DHT22;8062;53.882;10.642;2023-03-23T05:45:39;10.20;99.90
15926;DHT22;8062;53.882;10.642;2023-03-23T05:46:59;10.20;99.90
15926;DHT22;8062;53.882;10.642;2023-03-23T05:48:19;10.20;99.90
15926;DHT22;8062;53.882;10.642;2023-03-23T05:49:38;10.20;99.90
15926;DHT22;8062;53.882;10.642;2023-03-23T05:51:01;10.20;99.90
15926;DHT22;8062;53.882;10.642;2023-03-23T05:52:22;10.20;99.90
15926;DHT22;8062;53.882;10.642;2023-03-23T05:53:44;10.20;99.90
15926;DHT22;8062;53.882;10.642;2023-03-23T05:55:07;10.20;99.90
15926;DHT22;8062;53.882;10.642;2023-03-23T05:56:29;10.20;99.90
15926;DHT22;8062;53.882;10.642;2023-03-23T05:58:13;10.20;99.90
15926;DHT22;8062;53.882;10.642;2023-03-23T05:59:35;10.20;99.90
15926;DHT22;8062;53.882;10.642;2023-03-23T06:00:57;10.20;99.90
15926;DHT22;8062;53.882;10.642;2023-03-23T06:02:21;10.30;99.90
15926;DHT22;8062;53.882;10.642;2023-03-23T06:03:42;10.20;99.90
15926;DHT22;8062;53.882;10.642;2023-03-23T06:05:15;10.20;99.90
15926;DHT22;8062;53.882;10.642;2023-03-23T06:06:38;10.20;99.90
15926;DHT22;8062;53.882;10.642;2023-03-23T06:08:02;10.30;99.90
15926;DHT22;8062;53.882;10.642;2023-03-23T06:09:21;10.30;99.90
15926;DHT22;8062;53.882;10.642;2023-03-23T06:11:08;10.30;99.90
15926;DHT22;8062;53.882;10.642;2023-03-23T06:12:36;10.30;99.90
15926;DHT22;8062;53.882;10.642;2023-03-23T06:14:19;10.30;99.90
15926;DHT22;8062;53.882;10.642;2023-03-23T06:15:39;10.30;99.90
15926;DHT22;8062;53.882;10.642;2023-03-23T06:17:16;10.30;99.90
15926;DHT22;8062;53.882;10.642;2023-03-23T06:18:36;10.30;99.90
15926;DHT22;8062;53.882;10.642;2023-03-23T06:20:14;10.30;99.90
15926;DHT22;8062;53.882;10.642;2023-03-23T06:21:35;10.30;99.90
15926;DHT22;8062;53.882;10.642;2023-03-23T06:23:03;10.20;99.90
15926;DHT22;8062;53.882;10.642;2023-03-23T06:24:25;10.20;99.90
15926;DHT22;8062;53.882;10.642;2023-03-23T06:25:45;10.30;99.90
15926;DHT22;8062;53.882;10.642;2023-03-23T06:27:05;10.30;99.90
15926;DHT22;8062;53.882;10.642;2023-03-23T06:28:26;10.30;99.90
15926;DHT22;8062;53.882;10.642;2023-03-23T06:29:51;10.20;99.90
15926;DHT22;8062;53.882;10.642;2023-03-23T06:31:10;10.20;99.90
15926;DHT22;8062;53.882;10.642;2023-03-23T06:32:31;10.30;99.90
15926;DHT22;8062;53.882;10.642;2023-03-23T06:33:51;10.40;99.90
15926;DHT22;8062;53.882;10.642;2023-03-23T06:35:20;10.40;99.90
15926;DHT22;8062;53.882;10.642;2023-03-23T06:37:05;10.40;99.90
15926;DHT22;8062;53.882;10.642;2023-03-23T06:38:33;10.40;99.90
15926;DHT22;8062;53.882;10.642;2023-03-23T06:39:53;10.50;99.90
15926;DHT22;8062;53.882;10.642;2023-03-23T06:41:21;10.50;99.90
15926;DHT22;8062;53.882;10.642;2023-03-23T06:42:41;10.50;99.90
15926;DHT22;8062;53.882;10.642;2023-03-23T06:44:27;10.50;99.90
15926;DHT22;8062;53.882;10.642;2023-03-23T06:45:47;10.60;99.90
15926;DHT22;8062;53.882;10.642;2023-03-23T06:47:29;10.60;99.90
15926;DHT22;8062;53.882;10.642;2023-03-23T06:48:49;10.60;99.90
15926;DHT22;8062;53.882;10.642;2023-03-23T06:50:12;10.50;99.90
15926;DHT22;8062;53.882;10.642;2023-03-23T06:51:33;10.60;99.90
15926;DHT22;8062;53.882;10.642;2023-03-23T06:52:54;10.70;99.90
15926;DHT22;8062;53.882;10.642;2023-03-23T06:54:13;10.80;99.90
15926;DHT22;8062;53.882;10.642;2023-03-23T06:55:34;10.90;99.90
15926;DHT22;8062;53.882;10.642;2023-03-23T06:56:55;10.90;99.90
15926;DHT22;8062;53.882;10.642;2023-03-23T06:58:15;10.90;99.90
15926;DHT22;8062;53.882;10.642;2023-03-23T06:59:35;10.90;99.90
15926;DHT22;8062;53.882;10.642;2023-03-23T07:00:58;10.90;99.90
15926;DHT22;8062;53.882;10.642;2023-03-23T07:02:24;10.90;99.90
15926;DHT22;8062;53.882;10.642;2023-03-23T07:03:46;10.90;99.90
15926;DHT22;8062;53.882;10.642;2023-03-23T07:05:11;11.00;99.90
15926;DHT22;8062;53.882;10.642;2023-03-23T07:06:31;11.20;99.90
15926;DHT22;8062;53.882;10.642;2023-03-23T07:07:53;11.30;99.90
15926;DHT22;8062;53.882;10.642;2023-03-23T07:09:23;11.40;99.90
15926;DHT22;8062;53.882;10.642;2023-03-23T07:10:43;11.40;99.90
15926;DHT22;8062;53.882;10.642;2023-03-23T07:12:03;11.40;99.90
15926;DHT22;8062;53.882;10.642;2023-03-23T07:13:28;11.50;99.90
15926;DHT22;8062;53.882;10.642;2023-03-23T07:14:52;11.50;99.90
15926;DHT22;8062;53.882;10.642;2023-03-23T07:16:11;11.60;99.90
15926;DHT22;8062;53.882;10.642;2023-03-23T07:17:32;11.70;99.90
15926;DHT22;8062;53.882;10.642;2023-03-23T07:19:02;11.70;99.90
15926;DHT22;8062;53.882;10.642;2023-03-23T07:20:22;11.70;99.90
15926;DHT22;8062;53.882;10.642;2023-03-23T07:21:42;11.70;99.90
15926;DHT22;8062;53.882;10.642;2023-03-23T07:23:02;11.70;99.90
15926;DHT22;8062;53.882;10.642;2023-03-23T07:24:33;11.70;99.90
15926;DHT22;8062;53.882;10.642;2023-03-23T07:26:01;11.70;99.90
15926;DHT22;8062;53.882;10.642;2023-03-23T07:27:28;11.70;99.90
15926;DHT22;8062;53.882;10.642;2023-03-23T07:28:51;11.80;99.90
15926;DHT22;8062;53.882;10.642;2023-03-23T07:30:16;11.90;99.90
15926;DHT22;8062;53.882;10.642;2023-03-23T07:31:36;11.80;99.90
15926;DHT22;8062;53.882;10.642;2023-03-23T07:32:57;11.90;99.90
15926;DHT22;8062;53.882;10.642;2023-03-23T07:34:17;11.90;99.90
15926;DHT22;8062;53.882;10.642;2023-03-23T07:35:48;12.00;99.90
15926;DHT22;8062;53.882;10.642;2023-03-23T07:37:10;12.10;99.90
15926;DHT22;8062;53.882;10.642;2023-03-23T07:38:33;12.10;99.90
15926;DHT22;8062;53.882;10.642;2023-03-23T07:39:53;12.10;99.90
15926;DHT22;8062;53.882;10.642;2023-03-23T07:41:13;12.20;99.90
15926;DHT22;8062;53.882;10.642;2023-03-23T07:42:35;12.30;99.90
15926;DHT22;8062;53.882;10.642;2023-03-23T07:43:54;12.40;99.90
15926;DHT22;8062;53.882;10.642;2023-03-23T07:45:23;12.40;99.90
15926;DHT22;8062;53.882;10.642;2023-03-23T07:46:43;12.40;99.90
15926;DHT22;8062;53.882;10.642;2023-03-23T07:48:06;12.30;99.90
15926;DHT22;8062;53.882;10.642;2023-03-23T07:49:26;12.40;99.90
15926;DHT22;8062;53.882;10.642;2023-03-23T07:50:55;12.30;99.90
15926;DHT22;8062;53.882;10.642;2023-03-23T07:52:15;12.40;99.90
15926;DHT22;8062;53.882;10.642;2023-03-23T07:53:34;12.40;99.90
15926;DHT22;8062;53.882;10.642;2023-03-23T07:55:14;12.40;99.90
15926;DHT22;8062;53.882;10.642;2023-03-23T07:56:48;12.40;99.90
15926;DHT22;8062;53.882;10.642;2023-03-23T07:58:13;12.40;99.90
15926;DHT22;8062;53.882;10.642;2023-03-23T07:59:38;12.30;99.90
15926;DHT22;8062;53.882;10.642;2023-03-23T08:00:58;12.10;99.90
15926;DHT22;8062;53.882;10.642;2023-03-23T08:02:21;12.20;99.90
15926;DHT22;8062;53.882;10.642;2023-03-23T08:04:09;12.10;99.90
15926;DHT22;8062;53.882;10.642;2023-03-23T08:05:49;12.10;99.90
15926;DHT22;8062;53.882;10.642;2023-03-23T08:07:28;12.00;99.90
15926;DHT22;8062;53.882;10.642;2023-03-23T08:08:50;12.00;99.90
15926;DHT22;8062;53.882;10.642;2023-03-23T08:10:32;11.90;99.90
15926;DHT22;8062;53.882;10.642;2023-03-23T08:12:01;11.80;99.90
15926;DHT22;8062;53.882;10.642;2023-03-23T08:13:40;11.80;99.90
15926;DHT22;8062;53.882;10.642;2023-03-23T08:15:26;11.80;99.90
15926;DHT22;8062;53.882;10.642;2023-03-23T08:17:18;11.80;99.90
15926;DHT22;8062;53.882;10.642;2023-03-23T08:19:02;11.90;99.90
15926;DHT22;8062;53.882;10.642;2023-03-23T08:20:44;11.90;99.90
15926;DHT22;8062;53.882;10.642;2023-03-23T08:22:45;11.90;99.90
15926;DHT22;8062;53.882;10.642;2023-03-23T08:24:24;12.00;99.90
15926;DHT22;8062;53.882;10.642;2023-03-23T08:25:56;12.00;99.90
15926;DHT22;8062;53.882;10.642;2023-03-23T08:27:34;12.00;99.90
15926;DHT22;8062;53.882;10.642;2023-03-23T08:29:08;12.00;99.90
15926;DHT22;8062;53.882;10.642;2023-03-23T08:31:11;12.00;99.90
15926;DHT22;8062;53.882;10.642;2023-03-23T08:32:47;12.00;99.90
15926;DHT22;8062;53.882;10.642;2023-03-23T08:34:30;12.00;99.90
15926;DHT22;8062;53.882;10.642;2023-03-23T08:36:01;12.10;99.90
15926;DHT22;8062;53.882;10.642;2023-03-23T08:37:39;12.00;99.90
15926;DHT22;8062;53.882;10.642;2023-03-23T08:39:19;12.00;99.90
15926;DHT22;8062;53.882;10.642;2023-03-23T08:40:51;12.00;99.90
15926;DHT22;8062;53.882;10.642;2023-03-23T08:42:44;12.00;99.90
15926;DHT22;8062;53.882;10.642;2023-03-23T08:44:26;11.90;99.90
15926;DHT22;8062;53.882;10.642;2023-03-23T08:46:05;11.90;99.90
15926;DHT22;8062;53.882;10.642;2023-03-23T08:47:49;11.80;99.90
15926;DHT22;8062;53.882;10.642;2023-03-23T08:49:37;11.80;99.90
15926;DHT22;8062;53.882;10.642;2023-03-23T08:51:20;11.70;99.90
15926;DHT22;8062;53.882;10.642;2023-03-23T08:53:01;11.70;99.90
15926;DHT22;8062;53.882;10.642;2023-03-23T08:54:41;11.60;99.90
15926;DHT22;8062;53.882;10.642;2023-03-23T08:56:15;11.50;99.90
15926;DHT22;8062;53.882;10.642;2023-03-23T08:57:55;11.50;99.90
15926;DHT22;8062;53.882;10.642;2023-03-23T08:59:26;11.40;99.90
15926;DHT22;8062;53.882;10.642;2023-03-23T09:00:52;11.40;99.90
15926;DHT22;8062;53.882;10.642;2023-03-23T09:02:21;11.40;99.90
15926;DHT22;8062;53.882;10.642;2023-03-23T09:03:47;11.40;99.90
15926;DHT22;8062;53.882;10.642;2023-03-23T09:05:19;11.40;99.90
15926;DHT22;8062;53.882;10.642;2023-03-23T09:06:56;11.40;99.90
15926;DHT22;8062;53.882;10.642;2023-03-23T09:08:17;11.40;99.90
15926;DHT22;8062;53.882;10.642;2023-03-23T09:09:37;11.50;99.90
15926;DHT22;8062;53.882;10.642;2023-03-23T09:10:59;11.50;99.90
15926;DHT22;8062;53.882;10.642;2023-03-23T09:12:19;11.50;99.90
15926;DHT22;8062;53.882;10.642;2023-03-23T09:13:38;11.50;99.90
15926;DHT22;8062;53.882;10.642;2023-03-23T09:14:58;11.40;99.90
15926;DHT22;8062;53.882;10.642;2023-03-23T09:16:18;11.40;99.90